VTUJ

Surin Airport

Thailand
TAF VTUJ 141700Z 1418/1518 05012KT 9999 FEW035 BECMG 1420/1422 02005KT 7000 NSC BECMG 1500/1502 04012KT 9000
Issued Valid From Valid To
Dec-14 @ 17:00 UTC
(5 hours ago)
Dec-14 @ 18:00 UTC
(4 hours ago)
Dec-15 @ 18:00 UTC
(in 20 hours)
Expired Click to View Dec-14 @ 18:00 to Dec-14 @ 20:00
TAF VTUJ 141700Z 1418/1518 05012KT 9999 FEW035
Wind Visibility Clouds
50° at 12 knots 10,000+ meters
  • Few at 3,500' AGL
Becoming Dec-14 @ 20:00 to Dec-15 @ 00:00
BECMG 1420/1422 02005KT 7000 NSC
Wind Visibility Clouds
20° at 5 knots 7,001 meters
  • No significant clouds
Becoming Dec-15 @ 00:00 to Dec-15 @ 18:00
BECMG 1500/1502 04012KT 9000
Wind Visibility Clouds
40° at 12 knots 8,996 meters
  • No significant clouds
TAF VTUJ 141700Z 1418/1518 05012KT 9999 FEW035 BECMG 1420/1422 02005KT 7000 NSC BECMG 1500/1502 04012KT 9000
Issued Dec-14 @ 17:00 UTC
(5 hours ago)
Valid From Dec-14 @ 18:00 UTC
(4 hours ago)
Valid To Dec-15 @ 18:00 UTC
(in 20 hours)
Dec-14 @ 18:00 - Dec-14 @ 20:00
Wind Visibility
50° at 12 knots 10,000+ meters
Clouds
  • Few at 3,500' AGL
Becoming Dec-14 @ 20:00 - Dec-15 @ 00:00
Wind Visibility
20° at 5 knots 7,001 meters
Clouds
  • No significant clouds
Becoming Dec-15 @ 00:00 - Dec-15 @ 18:00
Wind Visibility
40° at 12 knots 8,996 meters
Clouds
  • No significant clouds